sensor_id;sensor_type;location;lat;lon;timestamp;P1;durP1;ratioP1;P2;durP2;ratioP2
81160;SDS011;70637;48.514;14.500;2023-07-31T00:02:03;3.17;;;1.73;;
81160;SDS011;70637;48.514;14.500;2023-07-31T00:04:29;3.00;;;1.98;;
81160;SDS011;70637;48.514;14.500;2023-07-31T00:06:54;3.72;;;1.90;;
81160;SDS011;70637;48.514;14.500;2023-07-31T00:09:20;4.97;;;1.83;;
81160;SDS011;70637;48.514;14.500;2023-07-31T00:11:45;3.38;;;1.90;;
81160;SDS011;70637;48.514;14.500;2023-07-31T00:14:14;2.97;;;1.90;;
81160;SDS011;70637;48.514;14.500;2023-07-31T00:16:39;5.68;;;1.90;;
81160;SDS011;70637;48.514;14.500;2023-07-31T00:19:05;3.25;;;1.73;;
81160;SDS011;70637;48.514;14.500;2023-07-31T00:21:31;3.13;;;1.60;;
81160;SDS011;70637;48.514;14.500;2023-07-31T00:23:56;5.93;;;2.08;;
81160;SDS011;70637;48.514;14.500;2023-07-31T00:26:22;2.85;;;1.85;;
81160;SDS011;70637;48.514;14.500;2023-07-31T00:28:48;2.45;;;1.85;;
81160;SDS011;70637;48.514;14.500;2023-07-31T00:31:16;4.57;;;1.92;;
81160;SDS011;70637;48.514;14.500;2023-07-31T00:33:41;2.75;;;1.73;;
81160;SDS011;70637;48.514;14.500;2023-07-31T00:36:09;3.30;;;1.75;;
81160;SDS011;70637;48.514;14.500;2023-07-31T00:38:34;2.53;;;1.52;;
81160;SDS011;70637;48.514;14.500;2023-07-31T00:41:00;3.55;;;1.65;;
81160;SDS011;70637;48.514;14.500;2023-07-31T00:43:26;4.25;;;1.60;;
81160;SDS011;70637;48.514;14.500;2023-07-31T00:45:51;3.75;;;1.92;;
81160;SDS011;70637;48.514;14.500;2023-07-31T00:48:17;3.63;;;2.05;;
81160;SDS011;70637;48.514;14.500;2023-07-31T00:50:43;5.35;;;2.10;;
81160;SDS011;70637;48.514;14.500;2023-07-31T00:53:08;3.03;;;1.75;;
81160;SDS011;70637;48.514;14.500;2023-07-31T00:55:34;2.80;;;1.90;;
81160;SDS011;70637;48.514;14.500;2023-07-31T00:58:00;3.05;;;2.22;;
81160;SDS011;70637;48.514;14.500;2023-07-31T01:00:25;2.78;;;1.70;;
81160;SDS011;70637;48.514;14.500;2023-07-31T01:02:51;4.45;;;2.10;;
81160;SDS011;70637;48.514;14.500;2023-07-31T01:05:19;3.63;;;1.92;;
81160;SDS011;70637;48.514;14.500;2023-07-31T01:08:05;3.22;;;1.90;;
81160;SDS011;70637;48.514;14.500;2023-07-31T01:10:41;3.55;;;1.80;;
81160;SDS011;70637;48.514;14.500;2023-07-31T01:13:15;3.08;;;1.77;;
81160;SDS011;70637;48.514;14.500;2023-07-31T01:15:42;6.93;;;1.98;;
81160;SDS011;70637;48.514;14.500;2023-07-31T01:18:08;3.47;;;1.83;;
81160;SDS011;70637;48.514;14.500;2023-07-31T01:20:34;5.97;;;2.00;;
81160;SDS011;70637;48.514;14.500;2023-07-31T01:28:20;4.15;;;1.70;;
81160;SDS011;70637;48.514;14.500;2023-07-31T01:30:55;5.68;;;2.05;;
81160;SDS011;70637;48.514;14.500;2023-07-31T01:33:24;3.00;;;2.00;;
81160;SDS011;70637;48.514;14.500;2023-07-31T01:35:50;6.32;;;2.03;;
81160;SDS011;70637;48.514;14.500;2023-07-31T01:38:20;6.32;;;2.13;;
81160;SDS011;70637;48.514;14.500;2023-07-31T01:40:50;3.72;;;2.00;;
81160;SDS011;70637;48.514;14.500;2023-07-31T01:43:17;4.28;;;1.90;;
81160;SDS011;70637;48.514;14.500;2023-07-31T01:45:43;4.28;;;1.90;;
81160;SDS011;70637;48.514;14.500;2023-07-31T01:48:08;3.97;;;2.17;;
81160;SDS011;70637;48.514;14.500;2023-07-31T01:50:34;3.70;;;2.13;;
81160;SDS011;70637;48.514;14.500;2023-07-31T01:52:59;3.72;;;1.95;;
81160;SDS011;70637;48.514;14.500;2023-07-31T01:55:25;3.58;;;2.13;;
81160;SDS011;70637;48.514;14.500;2023-07-31T01:57:51;5.47;;;2.42;;
81160;SDS011;70637;48.514;14.500;2023-07-31T02:00:17;2.47;;;1.88;;
81160;SDS011;70637;48.514;14.500;2023-07-31T02:02:43;5.35;;;2.10;;
81160;SDS011;70637;48.514;14.500;2023-07-31T02:05:08;4.97;;;2.10;;
81160;SDS011;70637;48.514;14.500;2023-07-31T02:07:34;5.65;;;2.05;;
81160;SDS011;70637;48.514;14.500;2023-07-31T02:10:00;4.90;;;2.03;;
81160;SDS011;70637;48.514;14.500;2023-07-31T02:12:27;3.88;;;2.20;;
81160;SDS011;70637;48.514;14.500;2023-07-31T02:14:55;4.47;;;1.90;;
81160;SDS011;70637;48.514;14.500;2023-07-31T02:17:21;4.78;;;1.88;;
81160;SDS011;70637;48.514;14.500;2023-07-31T02:19:46;3.95;;;2.00;;
81160;SDS011;70637;48.514;14.500;2023-07-31T02:22:12;3.78;;;1.90;;
81160;SDS011;70637;48.514;14.500;2023-07-31T02:24:38;6.03;;;1.88;;
81160;SDS011;70637;48.514;14.500;2023-07-31T02:27:03;3.40;;;2.40;;
81160;SDS011;70637;48.514;14.500;2023-07-31T02:29:29;3.80;;;2.17;;
81160;SDS011;70637;48.514;14.500;2023-07-31T02:31:55;4.95;;;1.95;;
81160;SDS011;70637;48.514;14.500;2023-07-31T02:34:20;8.43;;;2.47;;
81160;SDS011;70637;48.514;14.500;2023-07-31T02:36:46;3.72;;;2.40;;
81160;SDS011;70637;48.514;14.500;2023-07-31T02:39:12;4.22;;;2.30;;
81160;SDS011;70637;48.514;14.500;2023-07-31T02:41:37;5.97;;;2.55;;
81160;SDS011;70637;48.514;14.500;2023-07-31T02:44:03;5.35;;;2.50;;
81160;SDS011;70637;48.514;14.500;2023-07-31T02:46:29;4.72;;;2.45;;
81160;SDS011;70637;48.514;14.500;2023-07-31T02:48:54;4.75;;;2.20;;
81160;SDS011;70637;48.514;14.500;2023-07-31T02:51:20;5.88;;;2.10;;
81160;SDS011;70637;48.514;14.500;2023-07-31T02:53:46;4.50;;;2.28;;
81160;SDS011;70637;48.514;14.500;2023-07-31T02:56:13;5.82;;;2.00;;
81160;SDS011;70637;48.514;14.500;2023-07-31T02:58:38;5.05;;;2.40;;
81160;SDS011;70637;48.514;14.500;2023-07-31T03:01:04;4.28;;;2.10;;
81160;SDS011;70637;48.514;14.500;2023-07-31T03:03:30;7.05;;;2.30;;
81160;SDS011;70637;48.514;14.500;2023-07-31T03:05:56;5.30;;;2.20;;
81160;SDS011;70637;48.514;14.500;2023-07-31T03:08:21;4.38;;;2.10;;
81160;SDS011;70637;48.514;14.500;2023-07-31T03:10:47;3.15;;;2.17;;
81160;SDS011;70637;48.514;14.500;2023-07-31T03:13:12;3.20;;;1.88;;
81160;SDS011;70637;48.514;14.500;2023-07-31T03:15:42;5.28;;;2.10;;
81160;SDS011;70637;48.514;14.500;2023-07-31T03:18:08;3.30;;;2.05;;
81160;SDS011;70637;48.514;14.500;2023-07-31T03:20:34;4.18;;;2.53;;
81160;SDS011;70637;48.514;14.500;2023-07-31T03:22:59;4.63;;;2.20;;
81160;SDS011;70637;48.514;14.500;2023-07-31T03:25:25;3.40;;;1.90;;
81160;SDS011;70637;48.514;14.500;2023-07-31T03:27:51;4.68;;;2.60;;
81160;SDS011;70637;48.514;14.500;2023-07-31T03:30:16;4.07;;;2.35;;
81160;SDS011;70637;48.514;14.500;2023-07-31T03:32:42;5.47;;;2.25;;
81160;SDS011;70637;48.514;14.500;2023-07-31T03:35:07;4.78;;;2.38;;
81160;SDS011;70637;48.514;14.500;2023-07-31T03:37:33;5.20;;;2.63;;
81160;SDS011;70637;48.514;14.500;2023-07-31T03:39:59;5.15;;;2.38;;
81160;SDS011;70637;48.514;14.500;2023-07-31T03:42:27;4.15;;;2.10;;
81160;SDS011;70637;48.514;14.500;2023-07-31T03:44:53;4.32;;;1.98;;
81160;SDS011;70637;48.514;14.500;2023-07-31T03:47:18;5.15;;;2.38;;
81160;SDS011;70637;48.514;14.500;2023-07-31T03:49:44;4.32;;;2.33;;
81160;SDS011;70637;48.514;14.500;2023-07-31T03:52:09;4.43;;;2.45;;
81160;SDS011;70637;48.514;14.500;2023-07-31T03:54:35;6.90;;;2.40;;
81160;SDS011;70637;48.514;14.500;2023-07-31T03:57:01;4.93;;;2.40;;
81160;SDS011;70637;48.514;14.500;2023-07-31T03:59:26;3.10;;;2.28;;
81160;SDS011;70637;48.514;14.500;2023-07-31T04:01:52;3.28;;;2.33;;
81160;SDS011;70637;48.514;14.500;2023-07-31T04:04:18;7.50;;;4.90;;
81160;SDS011;70637;48.514;14.500;2023-07-31T04:06:43;6.35;;;4.30;;
81160;SDS011;70637;48.514;14.500;2023-07-31T04:09:09;6.30;;;3.90;;
81160;SDS011;70637;48.514;14.500;2023-07-31T04:11:35;4.95;;;2.83;;
81160;SDS011;70637;48.514;14.500;2023-07-31T04:14:00;5.70;;;2.25;;
81160;SDS011;70637;48.514;14.500;2023-07-31T04:16:26;3.35;;;2.25;;
81160;SDS011;70637;48.514;14.500;2023-07-31T04:18:51;4.00;;;2.70;;
81160;SDS011;70637;48.514;14.500;2023-07-31T04:21:17;4.38;;;2.53;;
81160;SDS011;70637;48.514;14.500;2023-07-31T04:23:43;4.63;;;2.50;;
81160;SDS011;70637;48.514;14.500;2023-07-31T04:26:08;6.25;;;3.30;;
81160;SDS011;70637;48.514;14.500;2023-07-31T04:28:34;5.20;;;2.70;;
81160;SDS011;70637;48.514;14.500;2023-07-31T04:31:00;5.13;;;2.70;;
81160;SDS011;70637;48.514;14.500;2023-07-31T04:33:25;3.78;;;2.65;;
81160;SDS011;70637;48.514;14.500;2023-07-31T04:35:53;4.22;;;2.38;;
81160;SDS011;70637;48.514;14.500;2023-07-31T04:38:20;4.57;;;2.28;;
81160;SDS011;70637;48.514;14.500;2023-07-31T04:40:46;3.78;;;2.40;;
81160;SDS011;70637;48.514;14.500;2023-07-31T04:43:12;5.65;;;2.40;;
81160;SDS011;70637;48.514;14.500;2023-07-31T04:45:38;3.92;;;2.42;;
81160;SDS011;70637;48.514;14.500;2023-07-31T04:48:03;5.38;;;2.35;;
81160;SDS011;70637;48.514;14.500;2023-07-31T04:50:29;3.85;;;2.30;;
81160;SDS011;70637;48.514;14.500;2023-07-31T04:52:55;6.20;;;2.20;;
81160;SDS011;70637;48.514;14.500;2023-07-31T04:55:21;5.50;;;2.45;;
81160;SDS011;70637;48.514;14.500;2023-07-31T04:57:47;3.67;;;2.50;;
81160;SDS011;70637;48.514;14.500;2023-07-31T05:00:12;6.55;;;2.20;;
81160;SDS011;70637;48.514;14.500;2023-07-31T05:02:38;5.18;;;2.30;;
81160;SDS011;70637;48.514;14.500;2023-07-31T05:05:04;3.67;;;2.50;;
81160;SDS011;70637;48.514;14.500;2023-07-31T05:07:30;5.82;;;2.50;;
81160;SDS011;70637;48.514;14.500;2023-07-31T05:09:55;5.57;;;2.60;;
81160;SDS011;70637;48.514;14.500;2023-07-31T05:12:21;4.63;;;2.38;;
81160;SDS011;70637;48.514;14.500;2023-07-31T05:14:46;4.15;;;2.75;;
81160;SDS011;70637;48.514;14.500;2023-07-31T05:17:12;5.60;;;2.70;;
81160;SDS011;70637;48.514;14.500;2023-07-31T05:19:38;6.15;;;2.65;;
81160;SDS011;70637;48.514;14.500;2023-07-31T05:22:03;5.15;;;2.47;;
81160;SDS011;70637;48.514;14.500;2023-07-31T05:24:29;7.65;;;2.85;;
81160;SDS011;70637;48.514;14.500;2023-07-31T05:26:55;6.32;;;2.45;;
81160;SDS011;70637;48.514;14.500;2023-07-31T05:29:22;7.00;;;2.83;;
81160;SDS011;70637;48.514;14.500;2023-07-31T05:31:47;4.03;;;2.70;;
81160;SDS011;70637;48.514;14.500;2023-07-31T05:34:13;5.03;;;2.70;;
81160;SDS011;70637;48.514;14.500;2023-07-31T05:36:39;5.57;;;2.92;;
81160;SDS011;70637;48.514;14.500;2023-07-31T05:39:04;5.22;;;2.92;;
81160;SDS011;70637;48.514;14.500;2023-07-31T05:41:33;7.60;;;2.70;;
81160;SDS011;70637;48.514;14.500;2023-07-31T05:44:00;6.72;;;2.67;;
81160;SDS011;70637;48.514;14.500;2023-07-31T05:46:25;5.72;;;2.63;;
81160;SDS011;70637;48.514;14.500;2023-07-31T05:48:51;6.60;;;2.50;;
81160;SDS011;70637;48.514;14.500;2023-07-31T05:51:16;7.43;;;2.53;;
81160;SDS011;70637;48.514;14.500;2023-07-31T05:53:42;5.60;;;2.60;;
81160;SDS011;70637;48.514;14.500;2023-07-31T05:56:08;5.70;;;2.60;;
81160;SDS011;70637;48.514;14.500;2023-07-31T05:58:34;5.35;;;2.60;;
81160;SDS011;70637;48.514;14.500;2023-07-31T06:00:59;9.52;;;2.50;;
81160;SDS011;70637;48.514;14.500;2023-07-31T06:03:25;4.15;;;2.10;;
81160;SDS011;70637;48.514;14.500;2023-07-31T06:05:51;5.80;;;2.30;;
81160;SDS011;70637;48.514;14.500;2023-07-31T06:08:16;4.90;;;2.05;;
81160;SDS011;70637;48.514;14.500;2023-07-31T06:14:05;5.28;;;2.08;;
81160;SDS011;70637;48.514;14.500;2023-07-31T06:16:30;5.43;;;1.90;;
81160;SDS011;70637;48.514;14.500;2023-07-31T06:18:56;5.60;;;2.72;;
81160;SDS011;70637;48.514;14.500;2023-07-31T06:21:22;5.25;;;2.10;;
81160;SDS011;70637;48.514;14.500;2023-07-31T06:23:47;9.07;;;2.25;;
81160;SDS011;70637;48.514;14.500;2023-07-31T06:26:13;4.88;;;1.92;;
81160;SDS011;70637;48.514;14.500;2023-07-31T06:28:38;5.47;;;1.98;;
81160;SDS011;70637;48.514;14.500;2023-07-31T06:31:04;5.63;;;1.80;;
81160;SDS011;70637;48.514;14.500;2023-07-31T06:33:30;4.47;;;1.80;;
81160;SDS011;70637;48.514;14.500;2023-07-31T06:35:56;5.47;;;2.00;;
81160;SDS011;70637;48.514;14.500;2023-07-31T06:38:22;6.93;;;2.10;;
81160;SDS011;70637;48.514;14.500;2023-07-31T06:40:49;6.93;;;2.10;;
81160;SDS011;70637;48.514;14.500;2023-07-31T06:43:15;5.35;;;2.05;;
81160;SDS011;70637;48.514;14.500;2023-07-31T06:45:41;6.20;;;1.83;;
81160;SDS011;70637;48.514;14.500;2023-07-31T06:48:09;4.93;;;1.95;;
81160;SDS011;70637;48.514;14.500;2023-07-31T06:50:35;4.70;;;2.10;;
81160;SDS011;70637;48.514;14.500;2023-07-31T06:53:00;4.32;;;1.90;;
81160;SDS011;70637;48.514;14.500;2023-07-31T06:55:27;5.72;;;1.80;;
81160;SDS011;70637;48.514;14.500;2023-07-31T06:57:53;5.32;;;1.60;;
81160;SDS011;70637;48.514;14.500;2023-07-31T07:00:20;4.30;;;1.70;;
81160;SDS011;70637;48.514;14.500;2023-07-31T07:02:47;3.65;;;1.70;;
81160;SDS011;70637;48.514;14.500;2023-07-31T07:05:13;5.13;;;1.73;;
81160;SDS011;70637;48.514;14.500;2023-07-31T07:07:39;4.30;;;1.73;;
81160;SDS011;70637;48.514;14.500;2023-07-31T07:10:05;6.93;;;1.73;;
81160;SDS011;70637;48.514;14.500;2023-07-31T07:12:31;3.75;;;1.60;;
81160;SDS011;70637;48.514;14.500;2023-07-31T07:14:57;4.47;;;1.52;;
81160;SDS011;70637;48.514;14.500;2023-07-31T07:17:24;4.35;;;1.70;;
81160;SDS011;70637;48.514;14.500;2023-07-31T07:19:50;4.85;;;1.70;;
81160;SDS011;70637;48.514;14.500;2023-07-31T07:22:16;7.05;;;1.48;;
81160;SDS011;70637;48.514;14.500;2023-07-31T07:24:42;5.05;;;1.40;;
81160;SDS011;70637;48.514;14.500;2023-07-31T07:27:08;5.05;;;1.48;;
81160;SDS011;70637;48.514;14.500;2023-07-31T07:29:34;3.90;;;1.60;;
81160;SDS011;70637;48.514;14.500;2023-07-31T07:32:00;6.63;;;1.58;;
81160;SDS011;70637;48.514;14.500;2023-07-31T07:34:26;4.15;;;1.65;;
81160;SDS011;70637;48.514;14.500;2023-07-31T07:36:52;4.22;;;1.40;;
81160;SDS011;70637;48.514;14.500;2023-07-31T07:39:21;3.65;;;1.40;;
81160;SDS011;70637;48.514;14.500;2023-07-31T07:41:46;4.78;;;1.60;;
81160;SDS011;70637;48.514;14.500;2023-07-31T07:44:12;5.47;;;1.50;;
81160;SDS011;70637;48.514;14.500;2023-07-31T07:46:39;4.88;;;1.92;;
81160;SDS011;70637;48.514;14.500;2023-07-31T07:49:05;4.43;;;1.50;;
81160;SDS011;70637;48.514;14.500;2023-07-31T07:51:30;5.82;;;1.52;;
81160;SDS011;70637;48.514;14.500;2023-07-31T07:53:57;3.92;;;1.40;;
81160;SDS011;70637;48.514;14.500;2023-07-31T07:56:23;6.85;;;1.80;;
81160;SDS011;70637;48.514;14.500;2023-07-31T07:58:50;5.05;;;1.60;;
81160;SDS011;70637;48.514;14.500;2023-07-31T08:01:16;4.60;;;1.60;;
81160;SDS011;70637;48.514;14.500;2023-07-31T08:03:46;5.00;;;1.40;;
81160;SDS011;70637;48.514;14.500;2023-07-31T08:06:12;2.65;;;1.55;;
81160;SDS011;70637;48.514;14.500;2023-07-31T08:08:39;5.10;;;1.38;;
81160;SDS011;70637;48.514;14.500;2023-07-31T08:11:04;3.67;;;1.48;;
81160;SDS011;70637;48.514;14.500;2023-07-31T08:13:30;6.47;;;1.38;;
81160;SDS011;70637;48.514;14.500;2023-07-31T08:15:56;3.88;;;1.27;;
81160;SDS011;70637;48.514;14.500;2023-07-31T08:18:22;3.90;;;1.52;;
81160;SDS011;70637;48.514;14.500;2023-07-31T08:20:47;2.47;;;1.40;;
81160;SDS011;70637;48.514;14.500;2023-07-31T08:23:13;3.97;;;1.23;;
81160;SDS011;70637;48.514;14.500;2023-07-31T08:25:39;4.32;;;1.40;;
81160;SDS011;70637;48.514;14.500;2023-07-31T08:28:05;4.07;;;1.38;;
81160;SDS011;70637;48.514;14.500;2023-07-31T08:30:32;3.00;;;1.23;;
81160;SDS011;70637;48.514;14.500;2023-07-31T08:33:01;4.22;;;1.58;;
81160;SDS011;70637;48.514;14.500;2023-07-31T08:35:27;5.20;;;1.60;;
81160;SDS011;70637;48.514;14.500;2023-07-31T08:37:53;6.38;;;1.70;;
81160;SDS011;70637;48.514;14.500;2023-07-31T08:40:19;2.60;;;1.30;;
81160;SDS011;70637;48.514;14.500;2023-07-31T08:42:46;5.00;;;1.60;;
81160;SDS011;70637;48.514;14.500;2023-07-31T08:45:13;3.80;;;1.50;;
81160;SDS011;70637;48.514;14.500;2023-07-31T08:47:42;3.10;;;1.60;;
81160;SDS011;70637;48.514;14.500;2023-07-31T08:50:12;4.07;;;1.48;;
81160;SDS011;70637;48.514;14.500;2023-07-31T08:52:39;7.97;;;1.67;;
81160;SDS011;70637;48.514;14.500;2023-07-31T08:55:05;3.70;;;1.45;;
81160;SDS011;70637;48.514;14.500;2023-07-31T08:57:31;4.78;;;1.70;;
81160;SDS011;70637;48.514;14.500;2023-07-31T08:59:59;5.35;;;1.50;;
81160;SDS011;70637;48.514;14.500;2023-07-31T09:02:26;5.72;;;1.90;;
81160;SDS011;70637;48.514;14.500;2023-07-31T09:05:01;4.22;;;1.42;;
81160;SDS011;70637;48.514;14.500;2023-07-31T09:07:27;5.50;;;1.60;;
81160;SDS011;70637;48.514;14.500;2023-07-31T09:09:54;4.53;;;1.58;;
81160;SDS011;70637;48.514;14.500;2023-07-31T09:12:20;5.13;;;1.55;;
81160;SDS011;70637;48.514;14.500;2023-07-31T09:14:45;3.65;;;1.20;;
81160;SDS011;70637;48.514;14.500;2023-07-31T09:17:12;5.28;;;1.52;;
81160;SDS011;70637;48.514;14.500;2023-07-31T09:19:38;5.38;;;1.75;;
81160;SDS011;70637;48.514;14.500;2023-07-31T09:22:04;3.90;;;1.52;;
81160;SDS011;70637;48.514;14.500;2023-07-31T09:24:31;6.47;;;1.65;;
81160;SDS011;70637;48.514;14.500;2023-07-31T09:26:58;3.13;;;1.30;;
81160;SDS011;70637;48.514;14.500;2023-07-31T09:29:25;4.18;;;1.40;;
81160;SDS011;70637;48.514;14.500;2023-07-31T09:31:52;5.70;;;1.55;;
81160;SDS011;70637;48.514;14.500;2023-07-31T09:34:18;4.07;;;1.48;;
81160;SDS011;70637;48.514;14.500;2023-07-31T09:36:48;4.38;;;1.33;;
81160;SDS011;70637;48.514;14.500;2023-07-31T09:39:15;4.03;;;1.60;;
81160;SDS011;70637;48.514;14.500;2023-07-31T09:41:42;3.00;;;1.48;;
81160;SDS011;70637;48.514;14.500;2023-07-31T09:44:09;5.90;;;1.58;;
81160;SDS011;70637;48.514;14.500;2023-07-31T09:46:35;3.38;;;1.38;;
81160;SDS011;70637;48.514;14.500;2023-07-31T09:49:10;4.07;;;1.33;;
81160;SDS011;70637;48.514;14.500;2023-07-31T09:51:41;3.38;;;1.48;;
81160;SDS011;70637;48.514;14.500;2023-07-31T09:54:14;6.57;;;1.63;;
81160;SDS011;70637;48.514;14.500;2023-07-31T09:56:41;3.63;;;1.50;;
81160;SDS011;70637;48.514;14.500;2023-07-31T09:59:13;3.10;;;1.33;;
81160;SDS011;70637;48.514;14.500;2023-07-31T10:01:43;3.60;;;1.63;;
81160;SDS011;70637;48.514;14.500;2023-07-31T10:04:09;3.28;;;1.67;;
81160;SDS011;70637;48.514;14.500;2023-07-31T10:06:36;4.63;;;1.67;;
81160;SDS011;70637;48.514;14.500;2023-07-31T10:09:07;5.47;;;1.70;;
81160;SDS011;70637;48.514;14.500;2023-07-31T10:11:41;4.95;;;1.65;;
81160;SDS011;70637;48.514;14.500;2023-07-31T10:14:10;6.55;;;1.83;;
81160;SDS011;70637;48.514;14.500;2023-07-31T10:16:37;3.65;;;1.52;;
81160;SDS011;70637;48.514;14.500;2023-07-31T10:19:05;3.65;;;1.40;;
81160;SDS011;70637;48.514;14.500;2023-07-31T10:21:31;4.93;;;1.65;;
81160;SDS011;70637;48.514;14.500;2023-07-31T10:24:00;5.95;;;2.15;;
81160;SDS011;70637;48.514;14.500;2023-07-31T10:26:30;6.82;;;1.55;;
81160;SDS011;70637;48.514;14.500;2023-07-31T10:28:58;2.95;;;1.65;;
81160;SDS011;70637;48.514;14.500;2023-07-31T10:31:25;5.75;;;1.75;;
81160;SDS011;70637;48.514;14.500;2023-07-31T10:33:52;7.35;;;2.00;;
81160;SDS011;70637;48.514;14.500;2023-07-31T10:36:20;4.50;;;1.58;;
81160;SDS011;70637;48.514;14.500;2023-07-31T10:38:48;4.88;;;1.67;;
81160;SDS011;70637;48.514;14.500;2023-07-31T10:41:14;5.15;;;2.00;;
81160;SDS011;70637;48.514;14.500;2023-07-31T10:43:40;3.22;;;1.45;;
81160;SDS011;70637;48.514;14.500;2023-07-31T10:46:08;6.65;;;1.73;;
81160;SDS011;70637;48.514;14.500;2023-07-31T10:48:37;3.30;;;1.30;;
81160;SDS011;70637;48.514;14.500;2023-07-31T10:51:07;3.38;;;1.40;;
81160;SDS011;70637;48.514;14.500;2023-07-31T10:53:36;3.42;;;1.58;;
81160;SDS011;70637;48.514;14.500;2023-07-31T10:56:03;2.53;;;1.40;;
81160;SDS011;70637;48.514;14.500;2023-07-31T10:58:31;2.80;;;1.40;;
81160;SDS011;70637;48.514;14.500;2023-07-31T11:00:58;2.88;;;1.48;;
81160;SDS011;70637;48.514;14.500;2023-07-31T11:03:26;3.63;;;1.50;;
81160;SDS011;70637;48.514;14.500;2023-07-31T11:06:05;6.28;;;1.60;;
81160;SDS011;70637;48.514;14.500;2023-07-31T11:08:35;3.60;;;1.50;;
81160;SDS011;70637;48.514;14.500;2023-07-31T11:11:07;6.80;;;1.90;;
81160;SDS011;70637;48.514;14.500;2023-07-31T11:13:39;4.18;;;1.70;;
81160;SDS011;70637;48.514;14.500;2023-07-31T11:16:05;4.45;;;1.65;;
81160;SDS011;70637;48.514;14.500;2023-07-31T11:18:31;2.92;;;1.50;;
81160;SDS011;70637;48.514;14.500;2023-07-31T11:20:57;4.22;;;1.70;;
81160;SDS011;70637;48.514;14.500;2023-07-31T11:23:22;4.70;;;1.48;;
81160;SDS011;70637;48.514;14.500;2023-07-31T11:25:49;8.40;;;1.60;;
81160;SDS011;70637;48.514;14.500;2023-07-31T11:28:16;2.92;;;1.50;;
81160;SDS011;70637;48.514;14.500;2023-07-31T11:30:43;6.43;;;1.60;;
81160;SDS011;70637;48.514;14.500;2023-07-31T11:33:11;2.00;;;1.30;;
81160;SDS011;70637;48.514;14.500;2023-07-31T11:35:55;3.50;;;1.40;;
81160;SDS011;70637;48.514;14.500;2023-07-31T11:38:25;4.90;;;1.42;;
81160;SDS011;70637;48.514;14.500;2023-07-31T11:40:59;5.75;;;1.77;;
81160;SDS011;70637;48.514;14.500;2023-07-31T11:43:28;2.65;;;1.58;;
81160;SDS011;70637;48.514;14.500;2023-07-31T11:45:56;3.08;;;1.45;;
81160;SDS011;70637;48.514;14.500;2023-07-31T11:48:28;4.32;;;1.75;;
81160;SDS011;70637;48.514;14.500;2023-07-31T11:55:58;3.70;;;1.63;;
81160;SDS011;70637;48.514;14.500;2023-07-31T11:58:25;6.05;;;1.77;;
81160;SDS011;70637;48.514;14.500;2023-07-31T12:00:51;6.30;;;1.70;;
81160;SDS011;70637;48.514;14.500;2023-07-31T12:03:17;4.43;;;1.67;;
81160;SDS011;70637;48.514;14.500;2023-07-31T12:05:43;9.02;;;1.85;;
81160;SDS011;70637;48.514;14.500;2023-07-31T12:08:12;3.42;;;1.63;;
81160;SDS011;70637;48.514;14.500;2023-07-31T12:10:38;4.30;;;2.30;;
81160;SDS011;70637;48.514;14.500;2023-07-31T12:13:09;4.30;;;1.92;;
81160;SDS011;70637;48.514;14.500;2023-07-31T12:15:38;4.60;;;1.70;;
81160;SDS011;70637;48.514;14.500;2023-07-31T12:18:06;4.05;;;1.80;;
81160;SDS011;70637;48.514;14.500;2023-07-31T12:20:39;3.72;;;1.58;;
81160;SDS011;70637;48.514;14.500;2023-07-31T12:23:34;4.82;;;1.80;;
81160;SDS011;70637;48.514;14.500;2023-07-31T12:26:00;3.95;;;1.73;;
81160;SDS011;70637;48.514;14.500;2023-07-31T12:28:34;3.03;;;1.60;;
81160;SDS011;70637;48.514;14.500;2023-07-31T12:33:32;6.75;;;1.75;;
81160;SDS011;70637;48.514;14.500;2023-07-31T12:36:00;3.38;;;1.77;;
81160;SDS011;70637;48.514;14.500;2023-07-31T12:38:28;3.08;;;1.73;;
81160;SDS011;70637;48.514;14.500;2023-07-31T12:40:54;4.53;;;1.55;;
81160;SDS011;70637;48.514;14.500;2023-07-31T12:43:19;3.67;;;2.00;;
81160;SDS011;70637;48.514;14.500;2023-07-31T12:45:45;4.55;;;1.63;;
81160;SDS011;70637;48.514;14.500;2023-07-31T12:48:12;4.13;;;1.67;;
81160;SDS011;70637;48.514;14.500;2023-07-31T12:50:38;3.17;;;1.50;;
81160;SDS011;70637;48.514;14.500;2023-07-31T12:53:04;2.92;;;1.65;;
81160;SDS011;70637;48.514;14.500;2023-07-31T12:55:30;5.88;;;2.00;;
81160;SDS011;70637;48.514;14.500;2023-07-31T12:57:56;4.00;;;1.75;;
81160;SDS011;70637;48.514;14.500;2023-07-31T13:00:22;2.83;;;1.50;;
81160;SDS011;70637;48.514;14.500;2023-07-31T13:02:48;4.47;;;1.60;;
81160;SDS011;70637;48.514;14.500;2023-07-31T13:05:14;4.72;;;1.67;;
81160;SDS011;70637;48.514;14.500;2023-07-31T13:07:40;6.38;;;1.73;;
81160;SDS011;70637;48.514;14.500;2023-07-31T13:10:06;2.80;;;1.50;;
81160;SDS011;70637;48.514;14.500;2023-07-31T13:12:33;3.53;;;1.52;;
81160;SDS011;70637;48.514;14.500;2023-07-31T13:14:59;3.83;;;1.83;;
81160;SDS011;70637;48.514;14.500;2023-07-31T13:17:24;3.25;;;1.88;;
81160;SDS011;70637;48.514;14.500;2023-07-31T13:19:51;4.63;;;1.60;;
81160;SDS011;70637;48.514;14.500;2023-07-31T13:22:16;4.10;;;1.70;;
81160;SDS011;70637;48.514;14.500;2023-07-31T13:24:42;2.25;;;1.42;;
81160;SDS011;70637;48.514;14.500;2023-07-31T13:27:08;3.28;;;1.60;;
81160;SDS011;70637;48.514;14.500;2023-07-31T13:29:33;4.20;;;1.73;;
81160;SDS011;70637;48.514;14.500;2023-07-31T13:31:59;6.15;;;1.58;;
81160;SDS011;70637;48.514;14.500;2023-07-31T13:34:24;2.95;;;1.50;;
81160;SDS011;70637;48.514;14.500;2023-07-31T13:36:50;4.05;;;1.60;;
81160;SDS011;70637;48.514;14.500;2023-07-31T13:39:16;3.47;;;1.50;;
81160;SDS011;70637;48.514;14.500;2023-07-31T13:41:41;4.25;;;1.98;;
81160;SDS011;70637;48.514;14.500;2023-07-31T13:44:07;4.70;;;1.50;;
81160;SDS011;70637;48.514;14.500;2023-07-31T13:46:33;3.15;;;1.65;;
81160;SDS011;70637;48.514;14.500;2023-07-31T13:48:59;4.97;;;1.70;;
81160;SDS011;70637;48.514;14.500;2023-07-31T13:51:26;3.28;;;1.70;;
81160;SDS011;70637;48.514;14.500;2023-07-31T13:54:05;2.70;;;1.70;;
81160;SDS011;70637;48.514;14.500;2023-07-31T13:56:31;3.40;;;1.60;;
81160;SDS011;70637;48.514;14.500;2023-07-31T13:58:57;3.47;;;1.70;;
81160;SDS011;70637;48.514;14.500;2023-07-31T14:01:23;2.78;;;1.60;;
81160;SDS011;70637;48.514;14.500;2023-07-31T14:03:49;3.63;;;1.55;;
81160;SDS011;70637;48.514;14.500;2023-07-31T14:06:14;5.57;;;1.58;;
81160;SDS011;70637;48.514;14.500;2023-07-31T14:08:40;10.57;;;1.52;;
81160;SDS011;70637;48.514;14.500;2023-07-31T14:11:06;2.88;;;1.65;;
81160;SDS011;70637;48.514;14.500;2023-07-31T14:13:31;2.85;;;1.60;;
81160;SDS011;70637;48.514;14.500;2023-07-31T14:15:57;5.13;;;1.75;;
81160;SDS011;70637;48.514;14.500;2023-07-31T14:18:23;3.05;;;1.70;;
81160;SDS011;70637;48.514;14.500;2023-07-31T14:20:48;3.25;;;1.50;;
81160;SDS011;70637;48.514;14.500;2023-07-31T14:23:14;2.95;;;1.88;;
81160;SDS011;70637;48.514;14.500;2023-07-31T14:25:40;8.57;;;1.30;;
81160;SDS011;70637;48.514;14.500;2023-07-31T14:28:06;3.13;;;1.58;;
81160;SDS011;70637;48.514;14.500;2023-07-31T14:30:32;3.70;;;1.65;;
81160;SDS011;70637;48.514;14.500;2023-07-31T14:32:58;3.05;;;1.75;;
81160;SDS011;70637;48.514;14.500;2023-07-31T14:35:25;2.97;;;1.80;;
81160;SDS011;70637;48.514;14.500;2023-07-31T14:37:51;2.47;;;1.60;;
81160;SDS011;70637;48.514;14.500;2023-07-31T14:40:16;4.43;;;1.60;;
81160;SDS011;70637;48.514;14.500;2023-07-31T14:42:42;2.83;;;1.60;;
81160;SDS011;70637;48.514;14.500;2023-07-31T14:45:09;2.80;;;1.70;;
81160;SDS011;70637;48.514;14.500;2023-07-31T14:47:35;2.67;;;1.60;;